Item Display Status Humidity-temperature Sensor

Elevation Above Sea Level: 3 m

 

Deployed Sensor

  • Serial Number: 20351123
  • NDBC Property Number: 43293
  • Start Date: 4/17/2020 (10:35:43 Z)
  • End Date: Currently Active
Relative Humidity [%]     6 entries per hour
Showing data from 2/5/2023 (04:00:00 Z) to 2/4/2023 (00:00:01 Z)
Previous Next [ Day | 3-Days | 7-Days ]
First Last
Prev [ Day | 3-Days | 7-Days ] Next
First Last

Start Time:     :
End Time:     :     
Time (in GMT) :00 :50 :40 :30 :20 :10
Previous Next [ Day | 3-Days | 7-Days ]
First Last
Prev [ Day | 3-Days | 7-Days ] Next
First Last


123 => good data
MM => data is determined as missing
-- => data not received/configured
Back to Top Back to Top
2/5/2023 04:00 to 3:10 91.29 91.48 91.66 91.58 91.66 91.66
2/5/2023 03:00 to 2:10 91.64 91.64 91.31 90.88 90.82 90.12
2/5/2023 02:00 to 1:10 89.75 89.61 89.77 90.20 89.92 89.46
2/5/2023 01:00 to 0:10 89.30 89.16 89.20 89.36 89.81 89.71
2/5/2023 00:00 to 23:10 89.90 89.65 89.01 88.83 89.36 90.04
2/4/2023 23:00 to 22:10 89.98 89.77 89.32 89.01 88.89 88.33
2/4/2023 22:00 to 21:10 88.21 88.72 88.91 88.52 88.66 89.22
2/4/2023 21:00 to 20:10 88.99 88.83 89.16 89.05 88.52 87.96
2/4/2023 20:00 to 19:10 87.76 87.37 87.18 87.10 87.31 86.77
2/4/2023 19:00 to 18:10 86.77 86.57 86.46 86.46 86.03 86.18
2/4/2023 18:00 to 17:10 85.74 86.26 86.94 86.79 86.09 86.38
2/4/2023 17:00 to 16:10 86.61 86.67 86.05 85.58 85.29 85.74
2/4/2023 16:00 to 15:10 86.20 86.26 86.77 86.71 86.26 86.57
2/4/2023 15:00 to 14:10 86.77 87.14 87.98 87.51 87.47 88.05
2/4/2023 14:00 to 13:10 88.05 87.86 88.09 89.03 89.09 88.87
2/4/2023 13:00 to 12:10 88.70 88.48 88.23 88.19 88.35 88.89
2/4/2023 12:00 to 11:10 89.07 89.03 88.62 87.90 88.09 88.56
2/4/2023 11:00 to 10:10 88.91 89.09 88.74 88.70 89.03 89.38
2/4/2023 10:00 to 9:10 89.59 89.28 89.59 89.79 90.20 90.49
2/4/2023 09:00 to 8:10 90.70 90.94 90.94 90.51 89.96 89.65
2/4/2023 08:00 to 7:10 89.30 89.26 89.34 88.81 88.50 88.37
2/4/2023 07:00 to 6:10 89.20 89.61 89.85 89.71 89.61 90.10
2/4/2023 06:00 to 5:10 90.39 90.14 89.55 89.36 89.44 89.87
2/4/2023 05:00 to 4:10 89.67 89.81 89.81 89.53 88.97 89.18
2/4/2023 04:00 to 3:10 89.20 89.03 88.77 88.99 89.30 88.95
2/4/2023 03:00 to 2:10 89.46 89.59 89.65 89.07 88.83 88.91
2/4/2023 02:00 to 1:10 88.87 88.95 88.64 88.62 89.30 89.59
2/4/2023 01:00 to 0:10 88.81 88.66 88.40 89.05 88.83 88.74

 

 

 

Air Temperature [°C]     6 entries per hour
Showing data from 2/5/2023 (04:00:00 Z) to 2/4/2023 (00:00:01 Z)
Previous Next [ Day | 3-Days | 7-Days ]
First Last
Prev [ Day | 3-Days | 7-Days ] Next
First Last

Start Time:     :
End Time:     :     
Time (in GMT) :00 :50 :40 :30 :20 :10
Previous Next [ Day | 3-Days | 7-Days ]
First Last
Prev [ Day | 3-Days | 7-Days ] Next
First Last


123 => good data
MM => data is determined as missing
-- => data not received/configured
Back to Top Back to Top
2/5/2023 04:00 to 3:10 26.75 26.68 26.80 26.90 26.74 26.74
2/5/2023 03:00 to 2:10 26.78 26.85 26.75 26.86 26.80 26.91
2/5/2023 02:00 to 1:10 26.95 26.87 26.86 26.89 26.95 26.88
2/5/2023 01:00 to 0:10 26.78 26.92 26.87 26.76 26.77 26.74
2/5/2023 00:00 to 23:10 26.82 26.94 26.89 26.76 26.80 26.84
2/4/2023 23:00 to 22:10 26.86 26.80 26.74 26.78 26.88 26.87
2/4/2023 22:00 to 21:10 26.83 26.79 26.70 26.81 26.92 26.67
2/4/2023 21:00 to 20:10 26.80 26.74 26.67 26.69 26.85 26.89
2/4/2023 20:00 to 19:10 26.79 26.99 26.75 26.80 26.81 26.83
2/4/2023 19:00 to 18:10 26.69 26.84 26.87 26.86 26.78 26.86
2/4/2023 18:00 to 17:10 26.77 26.64 26.67 26.85 26.74 26.61
2/4/2023 17:00 to 16:10 26.62 26.56 26.73 26.73 26.64 26.75
2/4/2023 16:00 to 15:10 26.52 26.55 26.51 26.63 26.56 26.46
2/4/2023 15:00 to 14:10 26.57 26.47 26.60 26.58 26.50 26.46
2/4/2023 14:00 to 13:10 26.48 26.39 26.41 26.26 26.29 26.50
2/4/2023 13:00 to 12:10 26.26 26.26 26.38 26.21 26.26 26.22
2/4/2023 12:00 to 11:10 26.25 26.22 26.37 26.27 26.29 26.21
2/4/2023 11:00 to 10:10 26.08 26.18 26.33 26.14 26.20 26.21
2/4/2023 10:00 to 9:10 26.24 26.37 26.28 26.29 26.18 26.24
2/4/2023 09:00 to 8:10 26.36 26.24 26.51 26.35 26.33 26.40
2/4/2023 08:00 to 7:10 26.42 26.46 26.43 26.54 26.64 26.37
2/4/2023 07:00 to 6:10 26.42 26.53 26.41 26.51 26.51 26.53
2/4/2023 06:00 to 5:10 26.47 26.69 26.71 26.66 26.69 26.53
2/4/2023 05:00 to 4:10 26.73 26.79 26.72 26.88 26.66 26.76
2/4/2023 04:00 to 3:10 26.54 26.79 26.70 26.71 26.69 26.75
2/4/2023 03:00 to 2:10 26.62 26.69 26.76 26.85 26.64 26.72
2/4/2023 02:00 to 1:10 26.91 26.77 26.81 26.93 26.72 26.74
2/4/2023 01:00 to 0:10 26.83 26.78 26.76 26.63 26.88 26.74